createdAt,value
2019-05-26T00:01:30.686Z,94.75
2019-05-26T00:04:03.738Z,94.89
2019-05-26T00:06:36.944Z,95.03
2019-05-26T00:09:09.599Z,95.28
2019-05-26T00:11:42.279Z,95.24
2019-05-26T00:14:14.961Z,95.19
2019-05-26T00:16:48.053Z,95.22
2019-05-26T00:19:20.953Z,95.32
2019-05-26T00:21:53.917Z,95.46
2019-05-26T00:24:27.012Z,95.42
2019-05-26T00:26:59.690Z,95.38
2019-05-26T00:29:32.694Z,95.15
2019-05-26T00:32:05.461Z,95.20
2019-05-26T00:34:38.034Z,95.20
2019-05-26T00:37:10.919Z,94.95
2019-05-26T00:39:43.476Z,94.82
2019-05-26T00:42:16.483Z,94.85
2019-05-26T00:44:48.957Z,94.89
2019-05-26T00:47:22.036Z,94.66
2019-05-26T00:49:55.027Z,94.63
2019-05-26T00:52:27.415Z,94.73
2019-05-26T00:55:00.185Z,94.79
2019-05-26T00:57:33.277Z,94.82
2019-05-26T01:00:12.235Z,94.75
2019-05-26T01:02:44.688Z,94.74
2019-05-26T01:05:17.572Z,94.60
2019-05-26T01:08:05.203Z,94.63
2019-05-26T01:10:24.665Z,94.61
2019-05-26T01:12:57.649Z,94.74
2019-05-26T01:15:30.322Z,94.82
2019-05-26T01:18:03.194Z,94.95
2019-05-26T01:20:35.990Z,95.14
2019-05-26T01:23:09.181Z,95.40
2019-05-26T01:25:42.318Z,95.62
2019-05-26T01:28:15.039Z,95.77
2019-05-26T01:30:48.955Z,95.92
2019-05-26T01:33:21.513Z,96.01
2019-05-26T01:35:54.753Z,96.09
2019-05-26T01:38:28.428Z,96.28
2019-05-26T01:41:00.999Z,96.52
2019-05-26T01:43:33.636Z,96.77
2019-05-26T01:46:06.676Z,96.97
2019-05-26T01:48:39.460Z,97.20
2019-05-26T01:51:12.429Z,97.46
2019-05-26T01:53:45.371Z,97.63
2019-05-26T01:56:18.876Z,97.76
2019-05-26T01:58:51.519Z,97.85
2019-05-26T02:01:25.502Z,97.90
2019-05-26T02:03:58.282Z,98.08
2019-05-26T02:06:31.175Z,98.18
2019-05-26T02:09:05.680Z,98.21
2019-05-26T02:11:38.574Z,98.21
2019-05-26T02:14:14.498Z,98.17
2019-05-26T02:16:45.476Z,98.19
2019-05-26T02:19:18.151Z,98.22
2019-05-26T02:21:51.480Z,98.27
2019-05-26T02:24:23.934Z,98.24
2019-05-26T02:26:56.701Z,98.18
2019-05-26T02:29:29.499Z,98.22
2019-05-26T02:32:01.977Z,98.25
2019-05-26T02:34:34.551Z,98.28
2019-05-26T02:37:07.420Z,98.34
2019-05-26T02:39:40.496Z,98.43
2019-05-26T02:42:13.497Z,98.45
2019-05-26T02:44:45.863Z,98.47
2019-05-26T02:47:18.663Z,98.47
2019-05-26T02:49:51.297Z,98.42
2019-05-26T02:52:24.219Z,98.37
2019-05-26T02:54:56.803Z,98.32
2019-05-26T02:57:29.364Z,98.13
2019-05-26T03:00:03.187Z,98.01
2019-05-26T03:02:36.315Z,97.93
2019-05-26T03:05:10.979Z,97.73
2019-05-26T03:07:44.829Z,97.52
2019-05-26T03:10:17.694Z,97.34
2019-05-26T03:12:53.987Z,97.00
2019-05-26T03:15:26.971Z,96.56
2019-05-26T03:18:02.013Z,96.26
2019-05-26T03:20:38.002Z,96.10
2019-05-26T03:23:11.298Z,95.85
2019-05-26T03:25:43.812Z,95.54
2019-05-26T03:28:16.743Z,94.96
2019-05-26T03:30:49.358Z,94.37
2019-05-26T03:33:22.768Z,93.89
2019-05-26T03:35:55.345Z,93.54
2019-05-26T03:38:28.009Z,92.87
2019-05-26T03:41:00.821Z,92.52
2019-05-26T03:43:33.678Z,92.36
2019-05-26T03:46:17.278Z,92.07
2019-05-26T03:48:50.770Z,91.70
2019-05-26T03:51:24.640Z,91.40
2019-05-26T03:53:57.310Z,91.26
2019-05-26T03:56:30.279Z,91.22
2019-05-26T03:59:02.770Z,90.62
2019-05-26T04:01:35.339Z,90.49
2019-05-26T04:04:07.802Z,90.42
2019-05-26T04:06:40.504Z,90.09
2019-05-26T04:09:13.337Z,89.71
2019-05-26T04:11:46.274Z,89.33
2019-05-26T04:14:18.631Z,89.22
2019-05-26T04:16:51.213Z,89.24
2019-05-26T04:19:24.006Z,89.16
2019-05-26T04:21:56.524Z,89.33
2019-05-26T04:24:29.129Z,89.56
2019-05-26T04:27:01.917Z,89.52
2019-05-26T04:29:35.078Z,89.53
2019-05-26T04:32:07.816Z,89.23
2019-05-26T04:34:40.386Z,89.29
2019-05-26T04:37:13.970Z,89.32
2019-05-26T04:39:46.460Z,88.76
2019-05-26T04:42:19.204Z,88.82
2019-05-26T04:44:51.922Z,88.49
2019-05-26T04:47:24.413Z,88.27
2019-05-26T04:49:56.954Z,88.02
2019-05-26T04:52:29.447Z,88.00
2019-05-26T04:55:02.347Z,87.62
2019-05-26T04:57:35.042Z,86.98
2019-05-26T05:00:09.437Z,86.57
2019-05-26T05:02:42.220Z,85.61
2019-05-26T05:05:18.988Z,84.76
2019-05-26T05:07:51.575Z,84.68
2019-05-26T05:10:24.351Z,83.58
2019-05-26T05:12:56.933Z,82.45
2019-05-26T05:15:29.404Z,82.00
2019-05-26T05:18:02.286Z,81.03
2019-05-26T05:20:35.175Z,79.97
2019-05-26T05:23:08.160Z,79.57
2019-05-26T05:25:40.737Z,79.36
2019-05-26T05:28:13.623Z,79.42
2019-05-26T05:30:46.085Z,79.35
2019-05-26T05:33:18.856Z,78.91
2019-05-26T05:35:51.738Z,77.76
2019-05-26T05:38:24.220Z,77.51
2019-05-26T05:40:59.820Z,76.51
2019-05-26T05:43:31.212Z,75.69
2019-05-26T05:46:04.826Z,73.87
2019-05-26T05:48:37.615Z,72.17
2019-05-26T05:51:11.216Z,70.29
2019-05-26T05:53:44.708Z,69.73
2019-05-26T05:56:17.575Z,69.64
2019-05-26T05:58:50.279Z,69.66
2019-05-26T06:01:22.962Z,70.57
2019-05-26T06:03:55.735Z,70.21
2019-05-26T06:06:28.522Z,70.80
2019-05-26T06:09:01.202Z,71.32
2019-05-26T06:11:33.980Z,71.01
2019-05-26T06:14:06.761Z,71.34
2019-05-26T06:16:39.442Z,71.34
2019-05-26T06:19:12.316Z,71.63
2019-05-26T06:21:45.418Z,71.49
2019-05-26T06:24:18.364Z,72.23
2019-05-26T06:26:51.062Z,72.79
2019-05-26T06:29:24.463Z,71.95
2019-05-26T06:31:57.858Z,70.97
2019-05-26T06:34:30.760Z,71.11
2019-05-26T06:37:03.604Z,71.54
2019-05-26T06:39:36.121Z,71.04
2019-05-26T06:42:12.985Z,70.98
2019-05-26T06:44:53.147Z,70.47
2019-05-26T06:47:18.575Z,70.54
2019-05-26T06:49:51.022Z,70.01
2019-05-26T06:52:23.820Z,70.80
2019-05-26T06:54:56.313Z,70.37
2019-05-26T06:57:28.824Z,70.32
2019-05-26T07:00:01.551Z,70.16
2019-05-26T07:02:36.020Z,69.92
2019-05-26T07:05:09.199Z,70.60
2019-05-26T07:07:42.868Z,70.18
2019-05-26T07:10:15.751Z,70.49
2019-05-26T07:12:48.100Z,71.25
2019-05-26T07:15:21.413Z,71.56
2019-05-26T07:17:53.891Z,72.05
2019-05-26T07:20:26.372Z,71.62
2019-05-26T07:22:59.043Z,70.97
2019-05-26T07:25:31.520Z,71.09
2019-05-26T07:28:03.991Z,70.94
2019-05-26T07:30:37.072Z,70.59
2019-05-26T07:33:11.909Z,71.88
2019-05-26T07:35:44.995Z,72.52
2019-05-26T07:38:17.884Z,71.37
2019-05-26T07:40:50.771Z,69.32
2019-05-26T07:43:23.138Z,69.18
2019-05-26T07:45:57.460Z,70.14
2019-05-26T07:48:30.531Z,69.56
2019-05-26T07:51:03.019Z,68.52
2019-05-26T07:53:35.501Z,68.61
2019-05-26T07:56:07.903Z,67.42
2019-05-26T07:58:40.653Z,67.29
2019-05-26T08:01:13.213Z,66.69
2019-05-26T08:03:45.997Z,66.57
2019-05-26T08:06:19.941Z,67.42
2019-05-26T08:08:53.304Z,65.01
2019-05-26T08:11:25.802Z,65.28
2019-05-26T08:13:58.160Z,65.57
2019-05-26T08:16:31.276Z,65.87
2019-05-26T08:19:04.170Z,62.94
2019-05-26T08:21:36.923Z,63.97
2019-05-26T08:24:09.390Z,64.48
2019-05-26T08:26:42.058Z,64.04
2019-05-26T08:29:14.733Z,63.21
2019-05-26T08:31:47.429Z,63.28
2019-05-26T08:34:20.108Z,61.98
2019-05-26T08:36:52.888Z,60.56
2019-05-26T08:39:25.568Z,58.62
2019-05-26T08:41:58.341Z,57.94
2019-05-26T08:44:31.038Z,59.48
2019-05-26T08:47:03.518Z,58.96
2019-05-26T08:49:36.395Z,59.01
2019-05-26T08:52:08.869Z,59.51
2019-05-26T08:54:41.669Z,60.10
2019-05-26T08:57:14.437Z,61.08
2019-05-26T08:59:47.219Z,61.85
2019-05-26T09:02:20.092Z,63.39
2019-05-26T09:04:52.884Z,62.70
2019-05-26T09:07:25.642Z,62.09
2019-05-26T09:09:58.647Z,61.63
2019-05-26T09:12:32.338Z,58.82
2019-05-26T09:15:07.383Z,58.53
2019-05-26T09:17:39.741Z,58.83
2019-05-26T09:20:12.829Z,58.67
2019-05-26T09:22:45.744Z,59.78
2019-05-26T09:25:18.933Z,60.17
2019-05-26T09:27:51.375Z,60.23
2019-05-26T09:30:23.949Z,56.73
2019-05-26T09:32:56.963Z,57.64
2019-05-26T09:35:29.439Z,56.22
2019-05-26T09:38:02.123Z,56.23
2019-05-26T09:40:34.896Z,55.75
2019-05-26T09:43:16.114Z,56.42
2019-05-26T09:45:41.797Z,56.67
2019-05-26T09:48:14.656Z,56.85
2019-05-26T09:50:47.352Z,56.69
2019-05-26T09:53:19.829Z,56.25
2019-05-26T09:55:52.610Z,56.90
2019-05-26T09:58:25.291Z,59.15
2019-05-26T10:00:58.183Z,58.94
2019-05-26T10:03:30.973Z,56.93
2019-05-26T10:06:03.430Z,56.82
2019-05-26T10:08:36.222Z,56.45
2019-05-26T10:11:08.788Z,57.63
2019-05-26T10:13:41.554Z,52.19
2019-05-26T10:16:14.151Z,53.50
2019-05-26T10:18:46.935Z,54.74
2019-05-26T10:21:19.718Z,54.21
2019-05-26T10:23:53.302Z,53.74
2019-05-26T10:26:26.907Z,54.16
2019-05-26T10:29:00.724Z,52.81
2019-05-26T10:31:33.403Z,51.64
2019-05-26T10:34:06.078Z,52.55
2019-05-26T10:36:38.842Z,54.40
2019-05-26T10:39:11.317Z,53.40
2019-05-26T10:41:43.813Z,54.45
2019-05-26T10:44:16.476Z,55.27
2019-05-26T10:46:49.050Z,54.17
2019-05-26T10:49:21.832Z,52.52
2019-05-26T10:51:54.463Z,51.18
2019-05-26T10:54:27.090Z,50.88
2019-05-26T10:56:59.580Z,49.99
2019-05-26T10:59:32.463Z,49.14
2019-05-26T11:02:05.147Z,49.24
2019-05-26T11:04:37.718Z,50.33
2019-05-26T11:07:10.076Z,50.72
2019-05-26T11:09:42.781Z,54.88
2019-05-26T11:12:15.353Z,57.90
2019-05-26T11:14:48.011Z,59.79
2019-05-26T11:17:20.710Z,58.94
2019-05-26T11:19:53.166Z,60.37
2019-05-26T11:22:25.951Z,60.58
2019-05-26T11:24:59.448Z,60.64
2019-05-26T11:27:31.935Z,62.73
2019-05-26T11:30:07.280Z,63.20
2019-05-26T11:32:39.762Z,65.60
2019-05-26T11:35:12.535Z,64.38
2019-05-26T11:37:45.317Z,62.70
2019-05-26T11:40:18.410Z,62.89
2019-05-26T11:42:51.173Z,59.16
2019-05-26T11:45:23.956Z,58.30
2019-05-26T11:47:56.857Z,58.62
2019-05-26T11:50:29.638Z,57.81
2019-05-26T11:53:03.136Z,56.83
2019-05-26T11:55:35.920Z,56.36
2019-05-26T11:58:09.439Z,56.22
2019-05-26T12:00:41.917Z,56.29
2019-05-26T12:03:14.454Z,56.95
2019-05-26T12:05:47.169Z,56.64
2019-05-26T12:08:19.839Z,56.77
2019-05-26T12:10:52.303Z,57.44
2019-05-26T12:13:25.190Z,57.71
2019-05-26T12:15:57.662Z,57.67
2019-05-26T12:18:31.674Z,57.52
2019-05-26T12:21:04.767Z,59.16
2019-05-26T12:23:37.753Z,60.22
2019-05-26T12:26:10.647Z,59.17
2019-05-26T12:28:43.420Z,58.46
2019-05-26T12:31:17.102Z,54.20
2019-05-26T12:33:49.706Z,52.60
2019-05-26T12:36:22.177Z,52.71
2019-05-26T12:38:54.942Z,54.23
2019-05-26T12:41:28.089Z,55.76
2019-05-26T12:44:00.720Z,56.43
2019-05-26T12:46:33.609Z,57.30
2019-05-26T12:49:06.281Z,57.61
2019-05-26T12:51:38.642Z,57.71
2019-05-26T12:54:11.420Z,58.10
2019-05-26T12:56:44.235Z,56.09
2019-05-26T12:59:16.898Z,55.08
2019-05-26T13:01:49.974Z,54.75
2019-05-26T13:04:22.467Z,52.56
2019-05-26T13:06:55.331Z,52.22
2019-05-26T13:09:28.113Z,53.27
2019-05-26T13:12:00.831Z,54.36
2019-05-26T13:14:33.308Z,53.73
2019-05-26T13:17:06.372Z,57.85
2019-05-26T13:19:39.054Z,61.33
2019-05-26T13:22:11.434Z,62.98
2019-05-26T13:24:43.672Z,62.53
2019-05-26T13:27:16.458Z,62.48
2019-05-26T13:29:49.752Z,61.41
2019-05-26T13:32:22.242Z,62.11
2019-05-26T13:34:54.809Z,61.71
2019-05-26T13:37:27.608Z,61.56
2019-05-26T13:40:00.391Z,60.53
2019-05-26T13:42:32.862Z,58.11
2019-05-26T13:45:21.189Z,57.52
2019-05-26T13:47:42.110Z,56.78
2019-05-26T13:50:15.547Z,53.99
2019-05-26T13:52:48.020Z,54.42
2019-05-26T13:55:21.139Z,53.86
2019-05-26T13:57:53.941Z,53.35
2019-05-26T14:00:26.691Z,53.91
2019-05-26T14:02:59.214Z,53.83
2019-05-26T14:05:32.816Z,53.32
2019-05-26T14:08:05.599Z,52.96
2019-05-26T14:10:38.998Z,51.60
2019-05-26T14:13:11.467Z,51.28
2019-05-26T14:15:44.455Z,52.58
2019-05-26T14:18:18.189Z,53.37
2019-05-26T14:20:50.931Z,55.76
2019-05-26T14:23:23.520Z,56.26
2019-05-26T14:25:56.295Z,54.23
2019-05-26T14:28:28.982Z,52.52
2019-05-26T14:31:01.533Z,50.19
2019-05-26T14:33:34.340Z,49.79
2019-05-26T14:36:07.114Z,50.79
2019-05-26T14:38:43.137Z,51.90
2019-05-26T14:41:13.586Z,55.83
2019-05-26T14:43:46.342Z,60.72
2019-05-26T14:46:19.178Z,74.46
2019-05-26T14:48:51.646Z,84.31
2019-05-26T14:51:24.631Z,88.83
2019-05-26T14:53:57.311Z,90.32
2019-05-26T14:56:30.302Z,91.76
2019-05-26T14:59:02.978Z,94.24
2019-05-26T15:01:35.860Z,97.85
2019-05-26T15:04:08.791Z,97.92
2019-05-26T15:06:41.423Z,95.66
2019-05-26T15:09:24.851Z,91.65
2019-05-26T15:11:48.114Z,90.77
2019-05-26T15:14:20.489Z,87.24
2019-05-26T15:16:53.250Z,83.22
2019-05-26T15:19:28.616Z,83.58
2019-05-26T15:22:01.064Z,80.58
2019-05-26T15:24:33.665Z,78.82
2019-05-26T15:27:06.138Z,79.47
2019-05-26T15:29:38.900Z,77.29
2019-05-26T15:32:11.701Z,75.99
2019-05-26T15:34:44.488Z,67.54
2019-05-26T15:37:16.938Z,67.58
2019-05-26T15:39:49.516Z,68.75
2019-05-26T15:42:22.322Z,63.40
2019-05-26T15:44:54.978Z,61.85
2019-05-26T15:47:27.778Z,59.51
2019-05-26T15:50:00.256Z,58.17
2019-05-26T15:52:33.253Z,57.29
2019-05-26T15:55:06.639Z,58.53
2019-05-26T15:57:39.841Z,58.82
2019-05-26T16:00:12.446Z,58.95
2019-05-26T16:02:44.983Z,56.15
2019-05-26T16:05:18.583Z,56.91
2019-05-26T16:07:51.377Z,57.70
2019-05-26T16:10:24.233Z,56.66
2019-05-26T16:12:56.917Z,56.50
2019-05-26T16:15:29.605Z,55.02
2019-05-26T16:18:02.294Z,56.90
2019-05-26T16:20:34.856Z,54.28
2019-05-26T16:23:08.944Z,55.90
2019-05-26T16:25:41.661Z,57.55
2019-05-26T16:28:14.150Z,57.82
2019-05-26T16:30:47.212Z,58.64
2019-05-26T16:33:19.703Z,60.42
2019-05-26T16:35:55.398Z,60.74
2019-05-26T16:38:26.584Z,62.35
2019-05-26T16:40:59.364Z,63.60
2019-05-26T16:43:31.856Z,65.13
2019-05-26T16:46:04.749Z,66.48
2019-05-26T16:48:37.212Z,67.63
2019-05-26T16:51:09.891Z,67.85
2019-05-26T16:53:42.568Z,68.15
2019-05-26T16:56:15.238Z,68.91
2019-05-26T16:58:47.833Z,69.02
2019-05-26T17:01:20.593Z,69.89
2019-05-26T17:03:53.294Z,70.61
2019-05-26T17:06:25.870Z,71.23
2019-05-26T17:08:58.756Z,71.54
2019-05-26T17:11:31.537Z,71.75
2019-05-26T17:14:04.449Z,71.83
2019-05-26T17:16:36.881Z,71.95
2019-05-26T17:19:09.558Z,72.40
2019-05-26T17:21:42.381Z,72.79
2019-05-26T17:24:15.137Z,73.32
2019-05-26T17:26:47.615Z,73.41
2019-05-26T17:29:21.418Z,73.59
2019-05-26T17:31:54.203Z,73.97
2019-05-26T17:34:26.867Z,74.73
2019-05-26T17:36:59.384Z,76.51
2019-05-26T17:39:32.034Z,77.81
2019-05-26T17:42:04.817Z,78.73
2019-05-26T17:44:37.496Z,78.83
2019-05-26T17:47:09.962Z,80.01
2019-05-26T17:49:44.686Z,80.30
2019-05-26T17:52:16.764Z,80.32
2019-05-26T17:54:49.551Z,80.12
2019-05-26T17:57:22.438Z,80.41
2019-05-26T17:59:55.023Z,80.41
2019-05-26T18:02:27.691Z,80.52
2019-05-26T18:05:01.298Z,81.26
2019-05-26T18:07:34.053Z,81.36
2019-05-26T18:10:08.591Z,81.35
2019-05-26T18:12:41.379Z,81.63
2019-05-26T18:15:14.236Z,81.73
2019-05-26T18:17:47.810Z,81.60
2019-05-26T18:20:19.816Z,81.03
2019-05-26T18:22:52.117Z,80.84
2019-05-26T18:25:24.893Z,80.64
2019-05-26T18:27:57.454Z,80.28
2019-05-26T18:30:30.240Z,80.17
2019-05-26T18:33:02.879Z,80.35
2019-05-26T18:35:35.577Z,80.63
2019-05-26T18:38:08.272Z,80.87
2019-05-26T18:40:41.957Z,81.45
2019-05-26T18:43:14.552Z,82.09
2019-05-26T18:45:47.212Z,82.47
2019-05-26T18:48:19.688Z,82.86
2019-05-26T18:50:52.540Z,83.14
2019-05-26T18:53:24.854Z,83.46
2019-05-26T18:55:57.525Z,83.95
2019-05-26T18:58:30.100Z,84.50
2019-05-26T19:01:02.783Z,85.00
2019-05-26T19:03:35.564Z,85.38
2019-05-26T19:06:08.055Z,85.84
2019-05-26T19:08:40.836Z,86.31
2019-05-26T19:11:13.291Z,86.70
2019-05-26T19:13:45.770Z,87.06
2019-05-26T19:16:18.609Z,87.34
2019-05-26T19:18:51.048Z,87.54
2019-05-26T19:21:23.622Z,87.55
2019-05-26T19:23:56.407Z,86.83
2019-05-26T19:26:29.126Z,86.16
2019-05-26T19:29:01.965Z,86.20
2019-05-26T19:31:35.462Z,86.39
2019-05-26T19:34:08.227Z,86.26
2019-05-26T19:36:40.819Z,86.34
2019-05-26T19:39:13.607Z,86.64
2019-05-26T19:41:46.293Z,86.90
2019-05-26T19:44:19.169Z,86.84
2019-05-26T19:46:52.995Z,86.89
2019-05-26T19:49:25.754Z,86.98
2019-05-26T19:51:58.436Z,86.98
2019-05-26T19:54:31.209Z,86.84
2019-05-26T19:57:03.907Z,86.63
2019-05-26T19:59:36.681Z,86.20
2019-05-26T20:02:18.463Z,86.36
2019-05-26T20:04:43.247Z,86.57
2019-05-26T20:07:16.154Z,86.72
2019-05-26T20:09:48.628Z,87.01
2019-05-26T20:12:21.830Z,87.18
2019-05-26T20:14:54.189Z,87.28
2019-05-26T20:17:26.567Z,87.42
2019-05-26T20:19:59.341Z,87.56
2019-05-26T20:22:32.007Z,87.80
2019-05-26T20:25:07.361Z,88.01
2019-05-26T20:27:39.735Z,88.28
2019-05-26T20:30:14.247Z,88.68
2019-05-26T20:32:46.843Z,89.14
2019-05-26T20:35:19.209Z,89.39
2019-05-26T20:37:51.992Z,89.67
2019-05-26T20:40:24.572Z,89.92
2019-05-26T20:42:57.448Z,90.13
2019-05-26T20:45:30.027Z,90.35
2019-05-26T20:48:02.813Z,90.77
2019-05-26T20:50:35.516Z,91.10
2019-05-26T20:53:09.150Z,91.44
2019-05-26T20:55:41.930Z,91.66
2019-05-26T20:58:14.534Z,91.89
2019-05-26T21:00:47.235Z,92.14
2019-05-26T21:03:19.916Z,92.39
2019-05-26T21:05:52.688Z,92.65
2019-05-26T21:08:25.478Z,92.90
2019-05-26T21:10:58.563Z,93.11
2019-05-26T21:13:31.247Z,93.08
2019-05-26T21:16:04.162Z,93.09
2019-05-26T21:18:36.793Z,93.12
2019-05-26T21:21:10.720Z,93.26
2019-05-26T21:23:44.712Z,93.42
2019-05-26T21:26:17.187Z,93.50
2019-05-26T21:28:50.545Z,93.60
2019-05-26T21:31:23.626Z,93.67
2019-05-26T21:33:56.256Z,93.84
2019-05-26T21:36:29.126Z,93.69
2019-05-26T21:39:01.943Z,93.59
2019-05-26T21:41:35.818Z,93.57
2019-05-26T21:44:08.312Z,93.48
2019-05-26T21:46:41.089Z,92.99
2019-05-26T21:49:13.974Z,92.72
2019-05-26T21:51:46.865Z,92.42
2019-05-26T21:54:20.650Z,92.24
2019-05-26T21:56:53.734Z,91.89
2019-05-26T21:59:26.411Z,91.78
2019-05-26T22:01:59.257Z,92.20
2019-05-26T22:04:31.876Z,92.17
2019-05-26T22:07:04.881Z,91.90
2019-05-26T22:09:38.383Z,91.91
2019-05-26T22:12:11.355Z,92.05
2019-05-26T22:14:45.786Z,92.34
2019-05-26T22:17:18.784Z,92.48
2019-05-26T22:19:51.759Z,92.35
2019-05-26T22:22:24.649Z,92.51
2019-05-26T22:24:57.759Z,92.21
2019-05-26T22:27:30.623Z,92.12
2019-05-26T22:30:03.607Z,92.16
2019-05-26T22:32:38.278Z,92.29
2019-05-26T22:35:11.016Z,92.29
2019-05-26T22:37:43.586Z,92.33
2019-05-26T22:40:17.073Z,92.34
2019-05-26T22:42:49.663Z,92.56
2019-05-26T22:45:22.339Z,92.75
2019-05-26T22:47:55.022Z,93.04
2019-05-26T22:50:27.808Z,93.15
2019-05-26T22:53:00.631Z,93.25
2019-05-26T22:55:33.764Z,93.29
2019-05-26T22:58:06.861Z,93.20
2019-05-26T23:00:39.630Z,93.05
2019-05-26T23:03:12.443Z,93.05
2019-05-26T23:05:45.310Z,93.13
2019-05-26T23:08:17.897Z,93.15
2019-05-26T23:10:51.390Z,93.03
2019-05-26T23:13:24.150Z,92.94
2019-05-26T23:15:56.947Z,92.95
2019-05-26T23:18:29.736Z,92.84
2019-05-26T23:21:02.514Z,92.78
2019-05-26T23:23:35.304Z,92.87
2019-05-26T23:26:08.194Z,93.11
2019-05-26T23:28:40.791Z,93.40
2019-05-26T23:31:13.622Z,93.70
2019-05-26T23:33:46.415Z,93.87
2019-05-26T23:36:20.418Z,93.89
2019-05-26T23:38:53.111Z,93.92
2019-05-26T23:41:25.893Z,93.81
2019-05-26T23:43:58.578Z,93.69
2019-05-26T23:46:31.478Z,93.61
2019-05-26T23:49:04.061Z,93.74
2019-05-26T23:51:37.022Z,93.69
2019-05-26T23:54:09.787Z,93.58
2019-05-26T23:56:42.671Z,93.60
2019-05-26T23:59:15.501Z,93.59
